Time;durP1;ratioP1;P1;durP2;ratioP2;P2;SDS_P1;SDS_P2;PMS_P1;PMS_P2;Temp;Humidity;BMP_temperature;BMP_pressure;BME280_temperature;BME280_humidity;BME280_pressure;Samples;Min_cycle;Max_cycle;Signal;HPM_P1;HPM_P2
2022/09/11 00:02:09;;;;;;;;;;;16.90;86.10;;;;;;5096379;27;19920;-71
2022/09/11 00:04:36;;;;;;;;;;;16.90;86.10;;;;;;5087402;28;19932;-71
2022/09/11 00:07:02;;;;;;;;;;;16.90;86.00;;;;;;5081698;28;19981;-71
2022/09/11 00:09:29;;;;;;;;;;;16.90;86.00;;;;;;5079176;28;19925;-71
2022/09/11 00:11:56;;;;;;;;;;;16.90;86.00;;;;;;5083039;28;19928;-71
2022/09/11 00:14:22;;;;;;;;;;;17.00;85.90;;;;;;5083144;28;19924;-71
2022/09/11 00:16:49;;;;;;;;;;;16.90;86.10;;;;;;5078457;28;19924;-71
2022/09/11 00:19:19;;;;;;;;;;;16.90;86.10;;;;;;5078128;28;20031;-71
2022/09/11 00:21:45;;;;;;;;;;;16.90;86.20;;;;;;5081174;28;19932;-70
2022/09/11 00:24:12;;;;;;;;;;;16.80;86.30;;;;;;5075521;28;20568;-71
2022/09/11 00:26:39;;;;;;;;;;;16.90;86.30;;;;;;5077894;28;19935;-70
2022/09/11 00:29:06;;;;;;;;;;;16.90;86.30;;;;;;5069579;28;19935;-71
2022/09/11 00:31:33;;;;;;;;;;;16.90;86.30;;;;;;5076260;28;19975;-71
2022/09/11 00:34:00;;;;;;;;;;;16.90;86.10;;;;;;5076340;28;19966;-69
2022/09/11 00:36:30;;;;;;;;;;;16.90;86.00;;;;;;5100162;28;19929;-71
2022/09/11 00:38:57;;;;;;;;;;;16.90;86.10;;;;;;5074874;28;19924;-70
2022/09/11 00:41:28;;;;;;;;;;;16.90;86.30;;;;;;5105497;27;19932;-70
2022/09/11 00:43:58;;;;;;;;;;;16.90;86.20;;;;;;5077735;28;19967;-71
2022/09/11 00:46:30;;;;;;;;;;;16.90;86.10;;;;;;5074247;28;20339;-71
2022/09/11 00:48:57;;;;;;;;;;;16.90;86.20;;;;;;5096691;27;19932;-71
2022/09/11 00:51:25;;;;;;;;;;;16.90;86.30;;;;;;5076204;28;19951;-71
2022/09/11 00:53:54;;;;;;;;;;;16.90;86.20;;;;;;5074908;28;19932;-71
2022/09/11 00:56:21;;;;;;;;;;;16.90;86.20;;;;;;5099668;28;19978;-70
2022/09/11 00:58:49;;;;;;;;;;;16.90;86.20;;;;;;5078406;28;19956;-70
2022/09/11 01:01:16;;;;;;;;;;;16.90;86.10;;;;;;5086477;28;20022;-70
2022/09/11 01:03:43;;;;;;;;;;;16.90;86.00;;;;;;5079670;28;19931;-71
2022/09/11 01:06:10;;;;;;;;;;;16.80;86.00;;;;;;5080439;28;19947;-71
2022/09/11 01:08:37;;;;;;;;;;;16.80;86.00;;;;;;5098458;28;19931;-72
2022/09/11 01:11:12;;;;;;;;;;;16.80;86.00;;;;;;5099708;28;20419;-71
2022/09/11 01:13:43;;;;;;;;;;;16.80;86.20;;;;;;5062516;28;20178;-70
2022/09/11 01:16:13;;;;;;;;;;;16.70;86.20;;;;;;5077400;28;19924;-70
2022/09/11 01:18:44;;;;;;;;;;;16.80;86.20;;;;;;5085824;28;19928;-71
2022/09/11 01:21:25;;;;;;;;;;;16.80;86.20;;;;;;5081392;28;20066;-71
2022/09/11 01:24:02;;;;;;;;;;;16.80;86.20;;;;;;5065223;28;20431;-70
2022/09/11 01:26:47;;;;;;;;;;;16.80;86.20;;;;;;5066386;28;19939;-70
2022/09/11 01:29:18;;;;;;;;;;;16.80;86.20;;;;;;5083330;28;19935;-70
2022/09/11 01:31:48;;;;;;;;;;;16.80;86.10;;;;;;5080138;28;20027;-70
2022/09/11 01:34:16;;;;;;;;;;;16.80;86.10;;;;;;5081873;28;19935;-71
2022/09/11 01:36:44;;;;;;;;;;;16.90;86.10;;;;;;5079284;28;19929;-71
2022/09/11 01:39:12;;;;;;;;;;;16.80;86.10;;;;;;5093852;28;19964;-71
2022/09/11 01:41:43;;;;;;;;;;;16.80;86.20;;;;;;5068629;28;19928;-71
2022/09/11 01:44:12;;;;;;;;;;;16.90;86.10;;;;;;5061459;28;19931;-70
2022/09/11 01:46:43;;;;;;;;;;;16.80;86.10;;;;;;5084487;28;19944;-71
2022/09/11 01:49:14;;;;;;;;;;;16.80;86.10;;;;;;5065831;28;19950;-71
2022/09/11 01:51:41;;;;;;;;;;;16.80;86.20;;;;;;5068095;28;20373;-70
2022/09/11 01:54:10;;;;;;;;;;;16.80;86.30;;;;;;5100424;27;19931;-69
2022/09/11 01:56:39;;;;;;;;;;;16.80;86.30;;;;;;5070592;28;20336;-71
2022/09/11 01:59:08;;;;;;;;;;;16.80;86.20;;;;;;5072641;28;20011;-71
2022/09/11 02:01:39;;;;;;;;;;;16.80;86.20;;;;;;5062152;28;20027;-71
2022/09/11 02:04:10;;;;;;;;;;;16.80;86.10;;;;;;5088289;28;19928;-71
2022/09/11 02:06:42;;;;;;;;;;;16.80;86.00;;;;;;5070314;28;19967;-70
2022/09/11 02:09:09;;;;;;;;;;;16.80;86.10;;;;;;5087645;28;19924;-70
2022/09/11 02:11:39;;;;;;;;;;;16.80;86.10;;;;;;5072950;28;19928;-71
2022/09/11 02:14:09;;;;;;;;;;;16.80;86.20;;;;;;5067881;28;19928;-71
2022/09/11 02:16:41;;;;;;;;;;;16.80;86.20;;;;;;5066086;28;19932;-71
2022/09/11 02:19:11;;;;;;;;;;;16.80;86.20;;;;;;5067514;28;19928;-71
2022/09/11 02:21:38;;;;;;;;;;;16.80;86.20;;;;;;5092937;28;20592;-70
2022/09/11 02:24:08;;;;;;;;;;;16.80;86.20;;;;;;5065066;28;19928;-71
2022/09/11 02:26:37;;;;;;;;;;;16.80;86.30;;;;;;5078049;28;19928;-71
2022/09/11 02:29:05;;;;;;;;;;;16.80;86.20;;;;;;5084893;28;19924;-70
2022/09/11 02:31:33;;;;;;;;;;;16.80;86.20;;;;;;5069796;28;19924;-71
2022/09/11 02:34:00;;;;;;;;;;;16.80;86.30;;;;;;5065230;28;19932;-70
2022/09/11 02:36:45;;;;;;;;;;;16.70;86.30;;;;;;5057743;28;20032;-69
2022/09/11 02:39:29;;;;;;;;;;;16.70;86.30;;;;;;5077162;28;19928;-71
2022/09/11 02:42:05;;;;;;;;;;;16.70;86.30;;;;;;5090803;28;20294;-70
2022/09/11 02:44:36;;;;;;;;;;;16.70;86.30;;;;;;5067405;28;20135;-71
2022/09/11 02:47:10;;;;;;;;;;;16.70;86.30;;;;;;5064387;28;19924;-70
2022/09/11 02:49:42;;;;;;;;;;;16.70;86.30;;;;;;5082004;28;20385;-70
2022/09/11 02:52:12;;;;;;;;;;;16.60;86.30;;;;;;5078438;28;19928;-70
2022/09/11 02:54:49;;;;;;;;;;;16.60;86.40;;;;;;5060805;28;19931;-70
2022/09/11 02:57:18;;;;;;;;;;;16.60;86.30;;;;;;5069857;28;20014;-71
2022/09/11 02:59:50;;;;;;;;;;;16.60;86.30;;;;;;5060351;28;19925;-70
2022/09/11 03:02:18;;;;;;;;;;;16.70;86.40;;;;;;5080744;28;20031;-70
2022/09/11 03:04:45;;;;;;;;;;;16.60;86.30;;;;;;5064031;28;20340;-70
2022/09/11 03:07:12;;;;;;;;;;;16.60;86.30;;;;;;5070768;28;20250;-70
2022/09/11 03:09:38;;;;;;;;;;;16.70;86.20;;;;;;5077488;28;19928;-71
2022/09/11 03:12:13;;;;;;;;;;;16.60;86.20;;;;;;5066447;28;19924;-71
2022/09/11 03:14:40;;;;;;;;;;;16.70;86.20;;;;;;5099853;28;19924;-71
2022/09/11 03:17:07;;;;;;;;;;;16.70;86.20;;;;;;5075184;28;19932;-69
2022/09/11 03:19:35;;;;;;;;;;;16.60;86.10;;;;;;5059136;28;19931;-70
2022/09/11 03:22:02;;;;;;;;;;;16.60;86.00;;;;;;5066633;28;19975;-71
2022/09/11 03:24:29;;;;;;;;;;;16.60;86.10;;;;;;5085731;28;20014;-71
2022/09/11 03:26:56;;;;;;;;;;;16.60;86.00;;;;;;5064641;28;20046;-70
2022/09/11 03:29:24;;;;;;;;;;;16.60;86.10;;;;;;5088116;28;19924;-71
2022/09/11 03:31:51;;;;;;;;;;;16.60;86.10;;;;;;5068547;28;20004;-68
2022/09/11 03:34:18;;;;;;;;;;;16.60;86.10;;;;;;5085704;28;20027;-66
2022/09/11 03:36:46;;;;;;;;;;;16.60;86.10;;;;;;5061779;28;20402;-70
2022/09/11 03:39:14;;;;;;;;;;;16.60;86.10;;;;;;5071692;28;19935;-70
2022/09/11 03:41:41;;;;;;;;;;;16.60;86.10;;;;;;5065211;28;19932;-70
2022/09/11 03:44:07;;;;;;;;;;;16.60;86.10;;;;;;5081824;28;19924;-68
2022/09/11 03:46:37;;;;;;;;;;;16.60;86.10;;;;;;5076578;28;20544;-70
2022/09/11 03:49:04;;;;;;;;;;;16.60;86.10;;;;;;5089517;28;19932;-70
2022/09/11 03:51:32;;;;;;;;;;;16.60;86.10;;;;;;5067653;28;19924;-70
2022/09/11 03:53:59;;;;;;;;;;;16.60;86.10;;;;;;5085840;28;20424;-70
2022/09/11 03:56:27;;;;;;;;;;;16.60;86.10;;;;;;5066835;28;20304;-70
2022/09/11 03:58:55;;;;;;;;;;;16.60;86.00;;;;;;5082929;28;19924;-70
2022/09/11 04:01:22;;;;;;;;;;;16.60;86.10;;;;;;5064610;28;19932;-69
2022/09/11 04:03:52;;;;;;;;;;;16.60;86.10;;;;;;5069024;28;20435;-70
2022/09/11 04:06:40;;;;;;;;;;;16.60;86.20;;;;;;5092719;28;19928;-70
2022/09/11 04:09:07;;;;;;;;;;;16.60;86.10;;;;;;5063647;28;19928;-69
2022/09/11 04:11:37;;;;;;;;;;;16.60;86.10;;;;;;5067529;28;19930;-70
2022/09/11 04:14:07;;;;;;;;;;;16.60;86.10;;;;;;5084996;28;19930;-69
2022/09/11 04:16:36;;;;;;;;;;;16.60;86.10;;;;;;5064364;28;19924;-70
2022/09/11 04:19:04;;;;;;;;;;;16.50;86.20;;;;;;5085198;28;19989;-69
2022/09/11 04:21:34;;;;;;;;;;;16.50;86.20;;;;;;5067081;28;19929;-70
2022/09/11 04:24:01;;;;;;;;;;;16.50;86.20;;;;;;5083735;28;20019;-70
2022/09/11 04:26:33;;;;;;;;;;;16.50;86.20;;;;;;5068638;28;20021;-70
2022/09/11 04:29:21;;;;;;;;;;;16.50;86.30;;;;;;5088999;28;20016;-70
2022/09/11 04:31:48;;;;;;;;;;;16.50;86.20;;;;;;5066174;28;20044;-70
2022/09/11 04:34:17;;;;;;;;;;;16.50;86.20;;;;;;5067646;28;20344;-70
2022/09/11 04:36:44;;;;;;;;;;;16.50;86.20;;;;;;5079497;28;19970;-70
2022/09/11 04:39:14;;;;;;;;;;;16.50;86.20;;;;;;5078623;28;19925;-70
2022/09/11 04:41:44;;;;;;;;;;;16.50;86.30;;;;;;5062753;28;19936;-70
2022/09/11 04:44:11;;;;;;;;;;;16.50;86.30;;;;;;5083186;28;19924;-70
2022/09/11 04:46:42;;;;;;;;;;;16.50;86.20;;;;;;5067543;28;19935;-69
2022/09/11 04:49:10;;;;;;;;;;;16.50;86.20;;;;;;5065906;28;19924;-70
2022/09/11 04:51:39;;;;;;;;;;;16.50;86.20;;;;;;5070960;28;19931;-70
2022/09/11 04:54:07;;;;;;;;;;;16.50;86.10;;;;;;5068141;28;20370;-70
2022/09/11 04:56:37;;;;;;;;;;;16.60;86.00;;;;;;5071190;28;20015;-70
2022/09/11 04:59:08;;;;;;;;;;;16.50;86.10;;;;;;5066296;28;19935;-70
2022/09/11 05:01:36;;;;;;;;;;;16.50;86.10;;;;;;5061348;28;19925;-69
2022/09/11 05:04:03;;;;;;;;;;;16.50;86.10;;;;;;5071378;28;19924;-69
2022/09/11 05:06:31;;;;;;;;;;;16.50;86.10;;;;;;5070968;28;20385;-70
2022/09/11 05:09:03;;;;;;;;;;;16.40;86.10;;;;;;5066975;28;19924;-70
2022/09/11 05:11:31;;;;;;;;;;;16.40;86.10;;;;;;5070685;28;20007;-70
2022/09/11 05:13:58;;;;;;;;;;;16.40;86.10;;;;;;5084298;28;20019;-70
2022/09/11 05:16:27;;;;;;;;;;;16.40;86.10;;;;;;5069348;28;19971;-69
2022/09/11 05:18:55;;;;;;;;;;;16.40;86.00;;;;;;5073524;28;20289;-70
2022/09/11 05:21:23;;;;;;;;;;;16.40;86.00;;;;;;5072074;28;19963;-71
2022/09/11 05:23:51;;;;;;;;;;;16.40;85.90;;;;;;5066486;28;19977;-70
2022/09/11 05:26:20;;;;;;;;;;;16.40;85.90;;;;;;5071657;28;19936;-70
2022/09/11 05:28:47;;;;;;;;;;;16.40;85.80;;;;;;5086424;28;19924;-70
2022/09/11 05:31:15;;;;;;;;;;;16.40;85.90;;;;;;5065657;28;19929;-69
2022/09/11 05:33:42;;;;;;;;;;;16.40;85.80;;;;;;5069173;28;20349;-69
2022/09/11 05:36:09;;;;;;;;;;;16.40;85.80;;;;;;5062486;28;19928;-70
2022/09/11 05:38:37;;;;;;;;;;;16.40;85.80;;;;;;5070224;28;20515;-69
2022/09/11 05:41:05;;;;;;;;;;;16.40;85.80;;;;;;5062074;28;19943;-70
2022/09/11 05:43:33;;;;;;;;;;;16.30;85.80;;;;;;5069840;28;19925;-69
2022/09/11 05:46:00;;;;;;;;;;;16.40;85.80;;;;;;5087284;28;19935;-69
2022/09/11 05:48:32;;;;;;;;;;;16.40;85.80;;;;;;5098387;28;19931;-70
2022/09/11 05:51:01;;;;;;;;;;;16.40;85.80;;;;;;5071133;28;19928;-70
2022/09/11 05:53:29;;;;;;;;;;;16.40;85.80;;;;;;5059639;28;19977;-70
2022/09/11 05:55:56;;;;;;;;;;;16.40;85.90;;;;;;5071268;28;20339;-69
2022/09/11 05:58:23;;;;;;;;;;;16.40;85.90;;;;;;5066491;28;20297;-68
2022/09/11 06:00:52;;;;;;;;;;;16.40;85.90;;;;;;5073113;28;19929;-69
2022/09/11 06:03:19;;;;;;;;;;;16.50;85.90;;;;;;5059734;28;19939;-70
2022/09/11 06:05:47;;;;;;;;;;;16.60;85.80;;;;;;5067324;28;20020;-69
2022/09/11 06:08:14;;;;;;;;;;;16.50;85.90;;;;;;5070095;28;19931;-68
2022/09/11 06:10:45;;;;;;;;;;;16.50;85.90;;;;;;5057021;28;20011;-70
2022/09/11 06:13:16;;;;;;;;;;;16.60;85.80;;;;;;5079216;28;19931;-70
2022/09/11 06:15:44;;;;;;;;;;;16.60;85.80;;;;;;5066196;28;19928;-70
2022/09/11 06:18:12;;;;;;;;;;;16.70;85.80;;;;;;5074301;28;21700;-70
2022/09/11 06:20:39;;;;;;;;;;;16.70;85.80;;;;;;5075592;28;20417;-70
2022/09/11 06:23:09;;;;;;;;;;;16.70;86.00;;;;;;5054777;28;20321;-70
2022/09/11 06:25:36;;;;;;;;;;;16.60;86.00;;;;;;5068265;28;19931;-70
2022/09/11 06:28:03;;;;;;;;;;;16.70;86.10;;;;;;5065038;28;20041;-70
2022/09/11 06:30:30;;;;;;;;;;;16.70;86.10;;;;;;5057744;28;20010;-70
2022/09/11 06:32:58;;;;;;;;;;;16.70;86.10;;;;;;5065437;28;19932;-70
2022/09/11 06:35:27;;;;;;;;;;;16.70;86.10;;;;;;5070028;28;19923;-70
2022/09/11 06:37:53;;;;;;;;;;;16.70;86.10;;;;;;5067748;28;19924;-69
2022/09/11 06:40:20;;;;;;;;;;;16.80;86.10;;;;;;5068408;28;20020;-70
2022/09/11 06:42:47;;;;;;;;;;;16.80;86.10;;;;;;5085883;28;19930;-72
2022/09/11 06:45:14;;;;;;;;;;;16.80;86.10;;;;;;5080915;28;19925;-70
2022/09/11 06:47:43;;;;;;;;;;;16.80;86.00;;;;;;5070238;28;19928;-70
2022/09/11 06:50:10;;;;;;;;;;;16.90;86.00;;;;;;5085473;28;19924;-70
2022/09/11 06:52:50;;;;;;;;;;;16.90;86.00;;;;;;5058875;28;19936;-70
2022/09/11 06:55:22;;;;;;;;;;;16.90;85.90;;;;;;5065771;28;19924;-71
2022/09/11 06:58:05;;;;;;;;;;;16.90;85.80;;;;;;5064468;28;19931;-69
2022/09/11 07:00:33;;;;;;;;;;;16.90;85.90;;;;;;5066006;28;19930;-70
2022/09/11 07:03:02;;;;;;;;;;;17.00;85.80;;;;;;5057443;28;20398;-70
2022/09/11 07:05:29;;;;;;;;;;;17.00;85.80;;;;;;5075576;28;19935;-70
2022/09/11 07:08:00;;;;;;;;;;;17.10;85.70;;;;;;5063005;28;19924;-71
2022/09/11 07:10:32;;;;;;;;;;;17.10;85.70;;;;;;5092398;28;20441;-70
2022/09/11 07:13:01;;;;;;;;;;;17.20;85.70;;;;;;5064707;28;19951;-70
2022/09/11 07:15:30;;;;;;;;;;;17.20;85.50;;;;;;5063732;28;19928;-70
2022/09/11 07:18:00;;;;;;;;;;;17.10;85.40;;;;;;5093984;28;19982;-68
2022/09/11 07:20:26;;;;;;;;;;;17.10;85.30;;;;;;5062544;28;19928;-69
2022/09/11 07:22:53;;;;;;;;;;;17.10;85.30;;;;;;5060992;28;19925;-71
2022/09/11 07:25:22;;;;;;;;;;;17.00;85.40;;;;;;5068909;28;19928;-70
2022/09/11 07:27:50;;;;;;;;;;;17.00;85.30;;;;;;5079535;28;19924;-71
2022/09/11 07:30:18;;;;;;;;;;;17.00;85.40;;;;;;5065678;28;19928;-70
2022/09/11 07:32:48;;;;;;;;;;;17.10;85.50;;;;;;5068160;28;19928;-70
2022/09/11 07:35:20;;;;;;;;;;;17.10;85.40;;;;;;5068164;28;20036;-71
2022/09/11 07:37:49;;;;;;;;;;;17.10;85.30;;;;;;5103400;28;19924;-70
2022/09/11 07:40:17;;;;;;;;;;;17.10;85.20;;;;;;5059528;28;19936;-70
2022/09/11 07:42:48;;;;;;;;;;;17.20;85.20;;;;;;5099988;28;19924;-70
2022/09/11 07:45:16;;;;;;;;;;;17.30;85.00;;;;;;5079782;28;19928;-70
2022/09/11 07:47:43;;;;;;;;;;;17.40;84.90;;;;;;5063509;28;19924;-70
2022/09/11 07:50:10;;;;;;;;;;;17.50;84.90;;;;;;5064279;28;19955;-70
2022/09/11 07:52:38;;;;;;;;;;;17.50;84.60;;;;;;5094033;28;20307;-71
2022/09/11 07:55:06;;;;;;;;;;;17.60;84.80;;;;;;5067055;28;19982;-70
2022/09/11 07:57:35;;;;;;;;;;;17.60;84.60;;;;;;5067226;28;19924;-69
2022/09/11 08:00:15;;;;;;;;;;;17.60;84.60;;;;;;5065474;28;19924;-69
2022/09/11 08:02:48;;;;;;;;;;;17.70;84.60;;;;;;5077332;28;20366;-67
2022/09/11 08:05:19;;;;;;;;;;;17.70;84.50;;;;;;5065788;28;19985;-68
2022/09/11 08:07:46;;;;;;;;;;;17.80;84.30;;;;;;5063684;28;20042;-67
2022/09/11 08:10:14;;;;;;;;;;;17.80;84.20;;;;;;5059311;28;19939;-67
2022/09/11 08:12:41;;;;;;;;;;;17.80;84.20;;;;;;5078035;28;20016;-67
2022/09/11 08:15:10;;;;;;;;;;;17.90;84.20;;;;;;5061922;28;19924;-69
2022/09/11 08:17:36;;;;;;;;;;;17.90;84.20;;;;;;5078042;28;19932;-67
2022/09/11 08:20:04;;;;;;;;;;;17.90;84.20;;;;;;5072225;28;19932;-66
2022/09/11 08:22:32;;;;;;;;;;;17.90;84.00;;;;;;5053756;28;19928;-67
2022/09/11 08:24:59;;;;;;;;;;;18.00;84.10;;;;;;5078648;28;19985;-68
2022/09/11 08:27:26;;;;;;;;;;;18.10;84.20;;;;;;5094744;28;19928;-68
2022/09/11 08:29:53;;;;;;;;;;;18.10;84.10;;;;;;5081586;28;20235;-67
2022/09/11 08:32:21;;;;;;;;;;;18.20;84.00;;;;;;5076701;28;20397;-68
2022/09/11 08:34:48;;;;;;;;;;;18.30;83.80;;;;;;5065217;28;19932;-66
2022/09/11 08:37:16;;;;;;;;;;;18.50;83.50;;;;;;5083553;28;19936;-66
2022/09/11 08:39:42;;;;;;;;;;;18.60;83.30;;;;;;5079440;28;19929;-66
2022/09/11 08:42:13;;;;;;;;;;;18.80;83.20;;;;;;5070039;28;20388;-68
2022/09/11 08:44:44;;;;;;;;;;;19.00;82.70;;;;;;5105100;28;19931;-66
2022/09/11 08:47:27;;;;;;;;;;;19.10;82.40;;;;;;5072902;28;20015;-66
2022/09/11 08:49:58;;;;;;;;;;;19.30;81.80;;;;;;5082820;28;19924;-64
2022/09/11 08:52:25;;;;;;;;;;;19.40;82.00;;;;;;5093074;28;19924;-66
2022/09/11 08:54:54;;;;;;;;;;;19.40;81.30;;;;;;5068422;28;20386;-68
2022/09/11 08:57:24;;;;;;;;;;;19.50;80.70;;;;;;5064409;28;20360;-68
2022/09/11 09:00:05;;;;;;;;;;;19.60;79.70;;;;;;5069940;28;20030;-69
2022/09/11 09:02:51;;;;;;;;;;;19.60;80.00;;;;;;5065185;28;19989;-68
2022/09/11 09:05:27;;;;;;;;;;;19.50;79.40;;;;;;5067734;28;19924;-67
2022/09/11 09:08:03;;;;;;;;;;;19.50;79.60;;;;;;5067404;28;19963;-67
2022/09/11 09:10:34;;;;;;;;;;;19.30;79.30;;;;;;5083893;28;19974;-67
2022/09/11 09:13:05;;;;;;;;;;;19.20;79.40;;;;;;5079977;28;19932;-68
2022/09/11 09:15:37;;;;;;;;;;;19.10;79.40;;;;;;5060487;28;20223;-67
2022/09/11 09:18:07;;;;;;;;;;;19.00;79.50;;;;;;5071241;28;19924;-67
2022/09/11 09:20:37;;;;;;;;;;;19.00;79.80;;;;;;5061127;28;19924;-67
2022/09/11 09:23:07;;;;;;;;;;;19.10;80.00;;;;;;5068990;28;19924;-68
2022/09/11 09:25:37;;;;;;;;;;;19.10;80.20;;;;;;5062810;28;19939;-67
2022/09/11 09:28:08;;;;;;;;;;;19.10;80.40;;;;;;5066369;28;20778;-68
2022/09/11 09:30:40;;;;;;;;;;;19.10;80.10;;;;;;5059991;28;20015;-67
2022/09/11 09:33:19;;;;;;;;;;;19.40;79.50;;;;;;5084616;28;19955;-68
2022/09/11 09:35:47;;;;;;;;;;;19.60;78.40;;;;;;5065466;28;19928;-70
2022/09/11 09:38:21;;;;;;;;;;;19.70;78.10;;;;;;5068043;28;20389;-68
2022/09/11 09:40:53;;;;;;;;;;;19.70;77.70;;;;;;5061825;28;19978;-68
2022/09/11 09:43:27;;;;;;;;;;;19.60;77.20;;;;;;5066180;28;19928;-65
2022/09/11 09:46:01;;;;;;;;;;;19.70;76.90;;;;;;5079456;28;20140;-67
2022/09/11 09:48:33;;;;;;;;;;;19.90;77.30;;;;;;5081511;28;20645;-67
2022/09/11 09:51:02;;;;;;;;;;;20.10;75.70;;;;;;5083247;28;19977;-69
2022/09/11 09:53:33;;;;;;;;;;;20.30;75.50;;;;;;5082683;28;19924;-68
2022/09/11 09:56:00;;;;;;;;;;;20.50;75.60;;;;;;5082777;28;20324;-69
2022/09/11 09:58:30;;;;;;;;;;;20.60;74.30;;;;;;5080239;28;20216;-69
2022/09/11 10:00:57;;;;;;;;;;;20.60;73.70;;;;;;5070539;28;19932;-69
2022/09/11 10:03:24;;;;;;;;;;;20.40;73.50;;;;;;5079023;28;19928;-68
2022/09/11 10:05:54;;;;;;;;;;;20.30;73.10;;;;;;5066870;28;19956;-68
2022/09/11 10:08:25;;;;;;;;;;;20.20;73.50;;;;;;5086819;28;20360;-69
2022/09/11 10:10:56;;;;;;;;;;;20.10;73.30;;;;;;5086652;28;19928;-69
2022/09/11 10:13:24;;;;;;;;;;;20.30;73.50;;;;;;5082714;28;19924;-69
2022/09/11 10:15:51;;;;;;;;;;;20.40;73.20;;;;;;5080333;28;19924;-68
2022/09/11 10:18:22;;;;;;;;;;;20.60;72.00;;;;;;5078880;28;19928;-69
2022/09/11 10:20:50;;;;;;;;;;;20.90;71.30;;;;;;5079113;28;20282;-69
2022/09/11 10:23:23;;;;;;;;;;;21.10;70.10;;;;;;5081218;28;19975;-67
2022/09/11 10:25:50;;;;;;;;;;;21.20;70.10;;;;;;5082439;28;19932;-68
2022/09/11 10:28:18;;;;;;;;;;;21.30;69.50;;;;;;5074633;28;19934;-68
2022/09/11 10:30:48;;;;;;;;;;;21.40;69.20;;;;;;5081580;28;19994;-68
2022/09/11 10:33:17;;;;;;;;;;;21.50;69.10;;;;;;5073240;28;20288;-71
2022/09/11 10:35:49;;;;;;;;;;;21.40;69.50;;;;;;5082593;28;19971;-69
2022/09/11 10:38:18;;;;;;;;;;;21.50;69.40;;;;;;5073612;28;19940;-68
2022/09/11 10:41:07;;;;;;;;;;;21.60;69.50;;;;;;5080022;28;19951;-68
2022/09/11 10:43:41;;;;;;;;;;;21.60;69.10;;;;;;5083907;28;19932;-69
2022/09/11 10:46:23;;;;;;;;;;;21.60;68.70;;;;;;5080267;28;19939;-69
2022/09/11 10:48:54;;;;;;;;;;;21.50;68.30;;;;;;5085111;28;20368;-69
2022/09/11 10:51:21;;;;;;;;;;;21.40;68.20;;;;;;5073635;28;20380;-69
2022/09/11 10:53:53;;;;;;;;;;;21.30;67.80;;;;;;5076821;28;19932;-69
2022/09/11 10:56:21;;;;;;;;;;;21.40;67.60;;;;;;5079663;28;19947;-69
2022/09/11 10:58:51;;;;;;;;;;;21.30;68.00;;;;;;5080486;28;19924;-70
2022/09/11 11:01:18;;;;;;;;;;;21.40;67.80;;;;;;5085156;28;19928;-70
2022/09/11 11:03:45;;;;;;;;;;;21.40;66.80;;;;;;5085275;28;19928;-69
2022/09/11 11:06:19;;;;;;;;;;;21.30;65.20;;;;;;5082489;28;20412;-68
2022/09/11 11:08:56;;;;;;;;;;;21.20;64.90;;;;;;5063931;28;20408;-69
2022/09/11 11:11:31;;;;;;;;;;;21.10;65.20;;;;;;5078148;28;20396;-69
2022/09/11 11:14:05;;;;;;;;;;;21.20;65.70;;;;;;5080904;28;20024;-69
2022/09/11 11:16:38;;;;;;;;;;;21.40;66.10;;;;;;5077462;28;19934;-68
2022/09/11 11:19:13;;;;;;;;;;;21.60;66.10;;;;;;5082463;28;20297;-68
2022/09/11 11:21:48;;;;;;;;;;;21.70;66.10;;;;;;5078876;28;19924;-69
2022/09/11 11:24:20;;;;;;;;;;;22.00;65.50;;;;;;5074578;28;19963;-68
2022/09/11 11:26:55;;;;;;;;;;;22.10;65.00;;;;;;5079258;28;20386;-72
2022/09/11 11:29:37;;;;;;;;;;;22.20;64.90;;;;;;5075021;28;19943;-69
2022/09/11 11:32:11;;;;;;;;;;;22.40;64.70;;;;;;5085353;28;19959;-69
2022/09/11 11:34:45;;;;;;;;;;;22.50;64.60;;;;;;5082248;28;19924;-69
2022/09/11 11:37:14;;;;;;;;;;;22.60;64.70;;;;;;5074765;28;19932;-68
2022/09/11 11:39:43;;;;;;;;;;;22.60;64.20;;;;;;5083184;28;19924;-67
2022/09/11 11:42:13;;;;;;;;;;;22.60;63.60;;;;;;5077117;28;19935;-67
2022/09/11 11:44:45;;;;;;;;;;;22.50;63.00;;;;;;5070281;28;19928;-67
2022/09/11 11:47:13;;;;;;;;;;;22.20;61.40;;;;;;5079900;28;19928;-68
2022/09/11 11:49:47;;;;;;;;;;;22.00;61.70;;;;;;5078900;28;20031;-68
2022/09/11 11:52:21;;;;;;;;;;;21.90;61.80;;;;;;5081167;28;19924;-68
2022/09/11 11:54:53;;;;;;;;;;;22.10;62.40;;;;;;5088092;28;19972;-68
2022/09/11 11:57:25;;;;;;;;;;;22.10;63.10;;;;;;5078120;28;20264;-69
2022/09/11 11:59:56;;;;;;;;;;;22.00;63.80;;;;;;5075262;28;19924;-69
2022/09/11 12:02:27;;;;;;;;;;;21.90;64.20;;;;;;5081488;28;19928;-67
2022/09/11 12:04:55;;;;;;;;;;;21.90;63.60;;;;;;5078699;28;20414;-68
2022/09/11 12:07:25;;;;;;;;;;;22.00;62.90;;;;;;5085793;28;19935;-68
2022/09/11 12:09:53;;;;;;;;;;;22.10;62.90;;;;;;5082693;28;20430;-69
2022/09/11 12:12:22;;;;;;;;;;;22.10;62.40;;;;;;5080909;28;20005;-68
2022/09/11 12:14:51;;;;;;;;;;;22.20;61.50;;;;;;5083760;28;19971;-68
2022/09/11 12:17:19;;;;;;;;;;;22.20;61.50;;;;;;5082953;28;20408;-68
2022/09/11 12:20:10;;;;;;;;;;;22.20;62.10;;;;;;5080997;28;19931;-68
2022/09/11 12:22:38;;;;;;;;;;;22.20;62.20;;;;;;5063663;28;19931;-68
2022/09/11 12:25:26;;;;;;;;;;;22.20;61.60;;;;;;5072387;28;20419;-68
2022/09/11 12:28:09;;;;;;;;;;;22.30;62.10;;;;;;5080944;28;20437;-68
2022/09/11 12:30:50;;;;;;;;;;;22.30;61.30;;;;;;5079805;28;19928;-68
2022/09/11 12:33:32;;;;;;;;;;;22.30;60.80;;;;;;5079197;28;19924;-68
2022/09/11 12:35:59;;;;;;;;;;;22.40;60.60;;;;;;5083874;28;20369;-71
2022/09/11 12:38:30;;;;;;;;;;;22.40;60.80;;;;;;5080079;28;20015;-68
2022/09/11 12:40:58;;;;;;;;;;;22.40;60.80;;;;;;5077158;28;19932;-69
2022/09/11 12:43:40;;;;;;;;;;;22.40;60.30;;;;;;5075631;28;19925;-69
2022/09/11 12:46:10;;;;;;;;;;;22.50;60.20;;;;;;5080614;28;19928;-68
2022/09/11 12:48:40;;;;;;;;;;;22.40;60.50;;;;;;5077220;28;19955;-70
2022/09/11 12:51:18;;;;;;;;;;;22.40;60.70;;;;;;5075012;28;19926;-68
2022/09/11 12:53:46;;;;;;;;;;;22.40;60.90;;;;;;5074445;28;19960;-68
2022/09/11 12:56:18;;;;;;;;;;;22.50;61.10;;;;;;5080758;28;19928;-67
2022/09/11 12:58:46;;;;;;;;;;;22.60;61.40;;;;;;5071804;28;19963;-69
2022/09/11 13:01:17;;;;;;;;;;;22.60;61.10;;;;;;5077697;28;19935;-68
2022/09/11 13:03:49;;;;;;;;;;;22.60;60.10;;;;;;5073583;28;19930;-68
2022/09/11 13:06:16;;;;;;;;;;;22.60;60.10;;;;;;5063123;28;19994;-68
2022/09/11 13:08:47;;;;;;;;;;;22.60;60.40;;;;;;5082730;28;19928;-69
2022/09/11 13:11:32;;;;;;;;;;;22.60;60.10;;;;;;5086321;28;19931;-69
2022/09/11 13:13:59;;;;;;;;;;;22.60;59.80;;;;;;5066053;28;19978;-70
2022/09/11 13:16:29;;;;;;;;;;;22.60;59.90;;;;;;5077812;28;19932;-71
2022/09/11 13:18:58;;;;;;;;;;;22.50;59.60;;;;;;5076012;28;19931;-68
2022/09/11 13:21:25;;;;;;;;;;;22.50;59.50;;;;;;5084267;28;19924;-70
2022/09/11 13:23:51;;;;;;;;;;;22.50;60.30;;;;;;5076172;28;20413;-69
2022/09/11 13:26:23;;;;;;;;;;;22.50;60.40;;;;;;5074118;28;19928;-68
2022/09/11 13:28:52;;;;;;;;;;;22.40;60.20;;;;;;5077821;28;19924;-70
2022/09/11 13:31:20;;;;;;;;;;;22.40;60.70;;;;;;5082990;28;19932;-68
2022/09/11 13:33:49;;;;;;;;;;;22.30;61.00;;;;;;5080690;28;19925;-68
2022/09/11 13:36:17;;;;;;;;;;;22.20;60.70;;;;;;5077671;28;20382;-69
2022/09/11 13:38:44;;;;;;;;;;;22.10;60.60;;;;;;5077852;28;19932;-67
2022/09/11 13:41:14;;;;;;;;;;;22.10;60.90;;;;;;5080452;28;20013;-68
2022/09/11 13:43:43;;;;;;;;;;;22.10;61.30;;;;;;5088274;28;19939;-68
2022/09/11 13:46:10;;;;;;;;;;;22.10;61.20;;;;;;5084124;28;19924;-69
2022/09/11 13:48:37;;;;;;;;;;;22.10;61.10;;;;;;5093170;28;20370;-69
2022/09/11 13:51:06;;;;;;;;;;;22.10;61.30;;;;;;5075632;28;19951;-69
2022/09/11 13:53:33;;;;;;;;;;;22.00;61.40;;;;;;5075246;28;19924;-69
2022/09/11 13:55:59;;;;;;;;;;;22.10;61.50;;;;;;5081375;28;19924;-68
2022/09/11 13:58:31;;;;;;;;;;;22.10;61.50;;;;;;5081214;28;19931;-69
2022/09/11 14:01:09;;;;;;;;;;;22.10;61.40;;;;;;5087665;28;19924;-68
2022/09/11 14:03:36;;;;;;;;;;;22.10;61.20;;;;;;5077493;28;19938;-69
2022/09/11 14:06:04;;;;;;;;;;;22.10;61.20;;;;;;5084837;28;19924;-68
2022/09/11 14:08:33;;;;;;;;;;;22.10;60.90;;;;;;5089788;28;19950;-68
2022/09/11 14:11:03;;;;;;;;;;;22.10;61.00;;;;;;5087322;28;19928;-69
2022/09/11 14:13:32;;;;;;;;;;;22.10;61.30;;;;;;5090555;28;19924;-68
2022/09/11 14:16:01;;;;;;;;;;;22.10;61.10;;;;;;5079445;28;19975;-71
2022/09/11 14:18:30;;;;;;;;;;;22.10;61.30;;;;;;5057375;28;19924;-67
2022/09/11 14:20:58;;;;;;;;;;;22.10;61.30;;;;;;5090210;28;19924;-69
2022/09/11 14:23:27;;;;;;;;;;;22.10;60.90;;;;;;5076529;28;20239;-69
2022/09/11 14:26:08;;;;;;;;;;;22.10;61.20;;;;;;5086360;28;20299;-68
2022/09/11 14:28:46;;;;;;;;;;;22.10;60.90;;;;;;5084483;28;20035;-68
2022/09/11 14:31:26;;;;;;;;;;;22.10;61.10;;;;;;5081903;28;20326;-68
2022/09/11 14:34:03;;;;;;;;;;;22.00;61.20;;;;;;5081402;28;19939;-69